Terminal Aerodrome Forecast
Issued by NWS

Home | Current Version | Previous Version | Text Only | Print | Product List | Glossary On
Versions: 1 2 3 4 5 6 7 8 9 10 11 12 13 14 15 16 17
000
FTUS46 KOTX 290520
TAFMWH
TAF
KMWH 290520Z 2906/3006 19008KT P6SM SCT060 BKN150
     FM290700 19005KT P6SM -RA BKN050 OVC080
     FM290900 15005KT P6SM -RA OVC040
     FM291600 16008KT P6SM FEW005 OVC080
     FM291900 19011KT P6SM FEW040 SCT070 BKN200=

USA.gov is the U.S. government's official web portal to all federal, state and local government web resources and services.